createdAt,value
2018-09-04T00:00:21.081Z,98.79
2018-09-04T00:02:49.680Z,98.79
2018-09-04T00:05:18.287Z,99.19
2018-09-04T00:07:46.914Z,99.06
2018-09-04T00:10:16.350Z,99.08
2018-09-04T00:12:44.961Z,99.04
2018-09-04T00:15:13.542Z,99.35
2018-09-04T00:17:42.135Z,99.56
2018-09-04T00:20:10.752Z,99.69
2018-09-04T00:22:39.376Z,99.94
2018-09-04T00:25:07.978Z,99.97
2018-09-04T00:27:36.577Z,100.00
2018-09-04T00:30:06.002Z,100.00
2018-09-04T00:32:34.597Z,100.00
2018-09-04T00:35:03.174Z,100.00
2018-09-04T00:37:31.828Z,100.00
2018-09-04T00:40:00.464Z,100.00
2018-09-04T00:42:29.085Z,100.00
2018-09-04T00:44:57.724Z,100.00
2018-09-04T00:47:26.319Z,100.00
2018-09-04T00:49:54.890Z,100.00
2018-09-04T00:52:23.488Z,100.00
2018-09-04T00:54:52.063Z,100.00
2018-09-04T00:57:20.645Z,100.00
2018-09-04T00:59:49.240Z,100.00
2018-09-04T01:02:17.827Z,100.00
2018-09-04T01:04:47.240Z,100.00
2018-09-04T01:07:16.197Z,100.00
2018-09-04T01:09:44.805Z,100.00
2018-09-04T01:12:13.398Z,100.00
2018-09-04T01:14:41.969Z,100.00
2018-09-04T01:17:10.570Z,100.00
2018-09-04T01:19:39.221Z,100.00
2018-09-04T01:22:07.800Z,100.00
2018-09-04T01:24:36.451Z,100.00
2018-09-04T01:27:05.104Z,100.00
2018-09-04T01:29:33.696Z,100.00
2018-09-04T01:32:02.293Z,100.00
2018-09-04T01:34:30.909Z,100.00
2018-09-04T01:36:59.500Z,100.00
2018-09-04T01:39:28.106Z,100.00
2018-09-04T01:41:56.673Z,100.00
2018-09-04T01:44:25.289Z,100.00
2018-09-04T01:46:53.872Z,100.00
2018-09-04T01:49:22.531Z,100.00
2018-09-04T01:51:51.106Z,100.00
2018-09-04T01:54:19.718Z,100.00
2018-09-04T01:56:48.303Z,100.00
2018-09-04T01:59:16.911Z,100.00
2018-09-04T02:01:45.540Z,100.00
2018-09-04T02:04:14.166Z,100.00
2018-09-04T02:06:42.757Z,100.00
2018-09-04T02:09:11.362Z,100.00
2018-09-04T02:11:39.941Z,100.00
2018-09-04T02:14:08.592Z,100.00
2018-09-04T02:16:37.210Z,100.00
2018-09-04T02:19:06.379Z,100.00
2018-09-04T02:21:34.955Z,100.00
2018-09-04T02:24:03.549Z,100.00
2018-09-04T02:26:32.146Z,100.00
2018-09-04T02:29:00.748Z,100.00
2018-09-04T02:31:29.310Z,100.00
2018-09-04T02:33:57.901Z,100.00
2018-09-04T02:36:26.561Z,100.00
2018-09-04T02:38:55.205Z,100.00
2018-09-04T02:41:23.842Z,100.00
2018-09-04T02:43:52.441Z,100.00
2018-09-04T02:46:21.018Z,100.00
2018-09-04T02:48:49.600Z,100.00
2018-09-04T02:51:18.221Z,100.00
2018-09-04T02:53:46.879Z,100.00
2018-09-04T02:56:15.465Z,100.00
2018-09-04T02:58:44.102Z,100.00
2018-09-04T03:01:12.695Z,100.00
2018-09-04T03:03:41.276Z,100.00
2018-09-04T03:06:09.870Z,100.00
2018-09-04T03:08:38.444Z,100.00
2018-09-04T03:11:07.025Z,100.00
2018-09-04T03:13:35.669Z,100.00
2018-09-04T03:16:04.262Z,100.00
2018-09-04T03:18:32.845Z,100.00
2018-09-04T03:21:01.449Z,100.00
2018-09-04T03:23:30.029Z,100.00
2018-09-04T03:25:58.640Z,100.00
2018-09-04T03:28:27.209Z,100.00
2018-09-04T03:30:55.855Z,100.00
2018-09-04T03:33:24.420Z,100.00
2018-09-04T03:35:53.084Z,100.00
2018-09-04T03:38:21.648Z,100.00
2018-09-04T03:40:50.232Z,100.00
2018-09-04T03:43:18.796Z,100.00
2018-09-04T03:45:47.385Z,100.00
2018-09-04T03:48:16.003Z,100.00
2018-09-04T03:50:44.643Z,100.00
2018-09-04T03:53:13.209Z,100.00
2018-09-04T03:55:41.785Z,100.00
2018-09-04T03:58:10.359Z,100.00
2018-09-04T04:00:38.957Z,100.00
2018-09-04T04:03:07.537Z,100.00
2018-09-04T04:05:36.248Z,100.00
2018-09-04T04:08:04.844Z,100.00
2018-09-04T04:10:33.438Z,100.00
2018-09-04T04:13:02.561Z,100.00
2018-09-04T04:15:31.159Z,100.00
2018-09-04T04:17:59.721Z,100.00
2018-09-04T04:20:28.374Z,100.00
2018-09-04T04:22:57.006Z,100.00
2018-09-04T04:25:25.740Z,100.00
2018-09-04T04:27:54.311Z,100.00
2018-09-04T04:30:22.893Z,100.00
2018-09-04T04:32:51.517Z,100.00
2018-09-04T04:35:20.185Z,100.00
2018-09-04T04:37:48.794Z,100.00
2018-09-04T04:40:17.421Z,100.00
2018-09-04T04:42:45.989Z,100.00
2018-09-04T04:45:14.574Z,100.00
2018-09-04T04:47:48.521Z,100.00
2018-09-04T04:50:17.870Z,100.00
2018-09-04T04:52:46.436Z,100.00
2018-09-04T04:55:15.026Z,100.00
2018-09-04T04:57:43.605Z,100.00
2018-09-04T05:00:12.276Z,100.00
2018-09-04T05:02:40.882Z,100.00
2018-09-04T05:05:09.494Z,100.00
2018-09-04T05:07:38.087Z,99.83
2018-09-04T05:10:07.323Z,99.78
2018-09-04T05:12:35.970Z,99.56
2018-09-04T05:15:04.558Z,99.47
2018-09-04T05:17:33.208Z,99.32
2018-09-04T05:20:01.838Z,99.33
2018-09-04T05:22:30.508Z,98.95
2018-09-04T05:24:59.050Z,98.94
2018-09-04T05:27:27.658Z,99.00
2018-09-04T05:29:56.225Z,98.82
2018-09-04T05:33:29.925Z,98.68
2018-09-04T05:35:59.481Z,98.37
2018-09-04T05:38:28.059Z,97.84
2018-09-04T05:40:56.667Z,97.83
2018-09-04T05:43:29.769Z,97.88
2018-09-04T05:46:00.639Z,97.40
2018-09-04T05:48:29.257Z,97.79
2018-09-04T05:50:57.861Z,97.49
2018-09-04T05:53:26.484Z,97.29
2018-09-04T05:55:55.137Z,97.26
2018-09-04T05:58:23.710Z,97.10
2018-09-04T06:00:56.271Z,97.25
2018-09-04T06:03:24.863Z,97.24
2018-09-04T06:05:53.459Z,96.73
2018-09-04T06:08:22.313Z,96.75
2018-09-04T06:10:50.897Z,96.60
2018-09-04T06:13:19.494Z,96.89
2018-09-04T06:15:48.081Z,96.44
2018-09-04T06:18:16.690Z,96.87
2018-09-04T06:20:45.270Z,97.02
2018-09-04T06:23:13.860Z,96.78
2018-09-04T06:25:42.718Z,96.66
2018-09-04T06:28:11.313Z,96.17
2018-09-04T06:30:39.972Z,95.36
2018-09-04T06:33:08.568Z,94.69
2018-09-04T06:35:37.150Z,94.85
2018-09-04T06:38:06.302Z,94.24
2018-09-04T06:40:34.876Z,93.83
2018-09-04T06:43:03.471Z,92.98
2018-09-04T06:45:32.055Z,91.82
2018-09-04T06:48:00.666Z,91.83
2018-09-04T06:50:29.278Z,91.47
2018-09-04T06:52:57.900Z,90.97
2018-09-04T06:55:26.486Z,90.21
2018-09-04T06:57:55.160Z,90.57
2018-09-04T07:00:23.792Z,91.06
2018-09-04T07:02:52.384Z,90.08
2018-09-04T07:05:20.990Z,90.48
2018-09-04T07:07:49.597Z,91.10
2018-09-04T07:10:18.218Z,90.68
2018-09-04T07:12:46.846Z,90.64
2018-09-04T07:15:15.436Z,90.67
2018-09-04T07:17:44.062Z,90.39
2018-09-04T07:20:12.688Z,90.37
2018-09-04T07:22:41.319Z,89.05
2018-09-04T07:25:09.951Z,88.42
2018-09-04T07:27:38.612Z,88.14
2018-09-04T07:30:07.510Z,87.98
2018-09-04T07:32:36.111Z,86.54
2018-09-04T07:35:04.721Z,87.36
2018-09-04T07:37:33.323Z,87.13
2018-09-04T07:40:01.904Z,86.18
2018-09-04T07:42:30.498Z,85.82
2018-09-04T07:44:59.081Z,85.03
2018-09-04T07:47:27.686Z,84.47
2018-09-04T07:49:56.241Z,84.38
2018-09-04T07:52:24.833Z,83.84
2018-09-04T07:54:53.411Z,83.04
2018-09-04T07:57:22.021Z,83.07
2018-09-04T07:59:50.586Z,83.17
2018-09-04T08:02:19.145Z,81.86
2018-09-04T08:04:47.725Z,82.79
2018-09-04T08:07:16.289Z,82.91
2018-09-04T08:09:44.893Z,82.26
2018-09-04T08:12:13.461Z,80.95
2018-09-04T08:14:42.111Z,80.55
2018-09-04T08:17:11.592Z,79.72
2018-09-04T08:19:40.189Z,79.77
2018-09-04T08:22:08.809Z,79.73
2018-09-04T08:24:37.415Z,78.79
2018-09-04T08:27:06.125Z,78.60
2018-09-04T08:29:34.763Z,78.21
2018-09-04T08:32:03.353Z,78.32
2018-09-04T08:34:31.949Z,79.65
2018-09-04T08:37:00.533Z,79.45
2018-09-04T08:39:29.120Z,78.86
2018-09-04T08:41:57.687Z,78.75
2018-09-04T08:44:26.290Z,77.87
2018-09-04T08:46:54.855Z,77.87
2018-09-04T08:49:23.457Z,77.63
2018-09-04T08:51:52.013Z,77.82
2018-09-04T08:54:20.659Z,76.48
2018-09-04T08:56:49.207Z,75.51
2018-09-04T08:59:17.809Z,73.20
2018-09-04T09:01:46.382Z,72.45
2018-09-04T09:04:14.976Z,72.12
2018-09-04T09:06:43.520Z,70.98
2018-09-04T09:09:12.096Z,68.62
2018-09-04T09:11:40.653Z,70.52
2018-09-04T09:14:09.245Z,68.62
2018-09-04T09:16:38.206Z,69.81
2018-09-04T09:19:06.906Z,69.02
2018-09-04T09:21:35.454Z,68.65
2018-09-04T09:24:04.041Z,69.67
2018-09-04T09:26:32.631Z,68.66
2018-09-04T09:29:01.221Z,68.75
2018-09-04T09:31:29.854Z,70.29
2018-09-04T09:33:58.438Z,71.18
2018-09-04T09:36:27.065Z,71.89
2018-09-04T09:38:55.652Z,72.83
2018-09-04T09:41:24.213Z,73.20
2018-09-04T09:43:52.793Z,72.95
2018-09-04T09:46:21.430Z,73.13
2018-09-04T09:48:50.016Z,73.02
2018-09-04T09:51:18.602Z,72.49
2018-09-04T09:53:47.202Z,72.40
2018-09-04T09:56:15.812Z,72.02
2018-09-04T09:58:44.433Z,71.40
2018-09-04T10:01:18.366Z,71.02
2018-09-04T10:03:52.205Z,70.04
2018-09-04T10:06:21.478Z,68.67
2018-09-04T10:08:50.100Z,68.79
2018-09-04T10:11:18.688Z,68.25
2018-09-04T10:13:47.937Z,68.14
2018-09-04T10:16:16.937Z,67.98
2018-09-04T10:18:45.535Z,67.73
2018-09-04T10:21:14.239Z,68.02
2018-09-04T10:23:42.875Z,66.80
2018-09-04T10:26:11.525Z,66.58
2018-09-04T10:28:40.111Z,64.71
2018-09-04T10:31:08.764Z,63.70
2018-09-04T10:33:37.367Z,62.09
2018-09-04T10:36:06.021Z,60.85
2018-09-04T10:38:34.631Z,61.55
2018-09-04T10:41:04.426Z,60.83
2018-09-04T10:43:33.407Z,59.23
2018-09-04T10:46:04.214Z,58.33
2018-09-04T10:48:32.775Z,57.44
2018-09-04T10:51:01.584Z,56.96
2018-09-04T10:53:30.155Z,56.47
2018-09-04T10:55:58.816Z,56.36
2018-09-04T10:58:27.402Z,57.00
2018-09-04T11:00:55.995Z,58.47
2018-09-04T11:03:24.593Z,57.53
2018-09-04T11:05:53.313Z,56.70
2018-09-04T11:08:21.901Z,56.33
2018-09-04T11:10:50.685Z,55.01
2018-09-04T11:13:19.379Z,54.84
2018-09-04T11:15:48.023Z,55.57
2018-09-04T11:18:16.593Z,56.28
2018-09-04T11:20:45.191Z,57.94
2018-09-04T11:23:13.764Z,56.23
2018-09-04T11:25:42.382Z,56.52
2018-09-04T11:28:10.957Z,56.75
2018-09-04T11:30:39.603Z,55.40
2018-09-04T11:33:08.233Z,56.52
2018-09-04T11:35:36.895Z,56.93
2018-09-04T11:38:05.747Z,57.83
2018-09-04T11:40:34.392Z,58.50
2018-09-04T11:43:02.983Z,57.60
2018-09-04T11:45:31.599Z,55.60
2018-09-04T11:48:00.870Z,54.28
2018-09-04T11:50:29.602Z,54.63
2018-09-04T11:52:58.188Z,53.34
2018-09-04T11:55:26.818Z,53.39
2018-09-04T11:57:55.392Z,53.73
2018-09-04T12:00:30.204Z,53.83
2018-09-04T12:02:58.841Z,53.38
2018-09-04T12:05:27.402Z,52.55
2018-09-04T12:07:55.975Z,52.00
2018-09-04T12:10:24.546Z,52.57
2018-09-04T12:12:53.202Z,52.47
2018-09-04T12:15:21.770Z,51.00
2018-09-04T12:17:50.356Z,51.12
2018-09-04T12:20:55.724Z,51.62
2018-09-04T12:23:24.238Z,50.04
2018-09-04T12:25:56.141Z,49.88
2018-09-04T12:28:24.754Z,49.84
2018-09-04T12:30:53.345Z,49.49
2018-09-04T12:33:21.908Z,48.99
2018-09-04T12:35:51.401Z,49.44
2018-09-04T12:38:21.594Z,49.84
2018-09-04T12:40:50.252Z,49.75
2018-09-04T12:43:18.870Z,50.11
2018-09-04T12:45:52.684Z,50.02
2018-09-04T12:48:23.678Z,50.39
2018-09-04T12:50:53.207Z,51.97
2018-09-04T12:53:22.463Z,51.88
2018-09-04T12:55:51.114Z,50.69
2018-09-04T12:58:19.725Z,51.21
2018-09-04T13:00:50.402Z,50.89
2018-09-04T13:03:20.565Z,50.82
2018-09-04T13:05:49.141Z,51.29
2018-09-04T13:08:18.625Z,51.12
2018-09-04T13:10:47.166Z,51.21
2018-09-04T13:13:15.777Z,50.00
2018-09-04T13:15:46.366Z,50.96
2018-09-04T13:18:15.004Z,51.48
2018-09-04T13:20:43.800Z,49.66
2018-09-04T13:23:12.401Z,49.83
2018-09-04T13:25:41.048Z,49.55
2018-09-04T13:28:10.001Z,47.82
2018-09-04T13:30:39.076Z,47.94
2018-09-04T13:33:08.025Z,47.93
2018-09-04T13:35:36.983Z,46.61
2018-09-04T13:38:05.622Z,46.45
2018-09-04T13:40:34.205Z,46.70
2018-09-04T13:43:02.856Z,47.13
2018-09-04T13:45:31.477Z,47.73
2018-09-04T13:48:01.281Z,46.87
2018-09-04T13:50:30.241Z,47.14
2018-09-04T13:52:58.955Z,46.67
2018-09-04T13:55:27.509Z,47.04
2018-09-04T13:57:56.076Z,46.36
2018-09-04T14:00:25.505Z,46.26
2018-09-04T14:02:54.151Z,47.05
2018-09-04T14:05:22.754Z,46.62
2018-09-04T14:07:51.333Z,45.78
2018-09-04T14:10:19.889Z,44.70
2018-09-04T14:12:48.490Z,45.39
2018-09-04T14:15:17.092Z,45.70
2018-09-04T14:17:45.669Z,44.90
2018-09-04T14:20:14.238Z,45.73
2018-09-04T14:22:42.827Z,46.17
2018-09-04T14:25:11.446Z,46.09
2018-09-04T14:27:40.043Z,47.47
2018-09-04T14:30:16.144Z,48.07
2018-09-04T14:32:37.281Z,49.24
2018-09-04T14:35:06.720Z,48.54
2018-09-04T14:37:35.309Z,48.73
2018-09-04T14:40:03.893Z,47.28
2018-09-04T14:42:32.485Z,47.56
2018-09-04T14:45:01.071Z,47.60
2018-09-04T14:47:29.657Z,47.88
2018-09-04T14:49:58.249Z,48.14
2018-09-04T14:52:26.812Z,47.41
2018-09-04T14:54:55.390Z,47.51
2018-09-04T14:57:23.963Z,47.23
2018-09-04T14:59:52.641Z,46.38
2018-09-04T15:02:21.346Z,46.21
2018-09-04T15:04:49.918Z,46.50
2018-09-04T15:07:18.556Z,46.47
2018-09-04T15:09:47.101Z,46.25
2018-09-04T15:12:15.659Z,46.54
2018-09-04T15:14:44.256Z,47.08
2018-09-04T15:17:12.851Z,46.69
2018-09-04T15:19:41.451Z,47.97
2018-09-04T15:22:10.046Z,47.29
2018-09-04T15:24:38.650Z,47.48
2018-09-04T15:27:07.241Z,47.19
2018-09-04T15:29:35.816Z,47.08
2018-09-04T15:32:04.449Z,48.57
2018-09-04T15:34:33.029Z,48.31
2018-09-04T15:37:01.678Z,48.02
2018-09-04T15:39:30.251Z,47.99
2018-09-04T15:41:58.862Z,48.38
2018-09-04T15:44:27.482Z,48.72
2018-09-04T15:46:56.037Z,48.74
2018-09-04T15:49:29.884Z,48.81
2018-09-04T15:51:58.423Z,48.76
2018-09-04T15:54:27.000Z,49.53
2018-09-04T15:56:55.579Z,49.97
2018-09-04T15:59:24.195Z,49.84
2018-09-04T16:01:52.764Z,49.56
2018-09-04T16:04:21.342Z,49.42
2018-09-04T16:06:49.922Z,49.01
2018-09-04T16:09:18.506Z,49.05
2018-09-04T16:11:47.065Z,49.19
2018-09-04T16:14:15.680Z,49.29
2018-09-04T16:16:44.336Z,49.26
2018-09-04T16:19:12.919Z,49.18
2018-09-04T16:21:41.479Z,49.14
2018-09-04T16:24:10.128Z,49.25
2018-09-04T16:26:38.718Z,49.09
2018-09-04T16:29:07.316Z,49.45
2018-09-04T16:31:35.889Z,50.18
2018-09-04T16:34:04.540Z,50.86
2018-09-04T16:36:33.121Z,51.28
2018-09-04T16:39:01.815Z,51.94
2018-09-04T16:41:30.444Z,52.72
2018-09-04T16:43:59.009Z,53.53
2018-09-04T16:46:28.008Z,54.74
2018-09-04T16:48:56.668Z,55.47
2018-09-04T16:51:25.265Z,56.28
2018-09-04T16:53:53.840Z,56.76
2018-09-04T16:56:22.439Z,56.76
2018-09-04T16:58:51.030Z,57.09
2018-09-04T17:01:19.691Z,57.98
2018-09-04T17:03:48.244Z,58.22
2018-09-04T17:06:16.846Z,58.48
2018-09-04T17:08:45.421Z,58.59
2018-09-04T17:11:14.021Z,58.88
2018-09-04T17:13:42.588Z,59.17
2018-09-04T17:16:11.189Z,59.32
2018-09-04T17:18:39.760Z,59.82
2018-09-04T17:21:08.359Z,60.06
2018-09-04T17:23:36.913Z,60.36
2018-09-04T17:26:06.172Z,61.08
2018-09-04T17:28:34.718Z,61.45
2018-09-04T17:31:03.309Z,61.75
2018-09-04T17:33:31.885Z,62.65
2018-09-04T17:36:00.471Z,63.00
2018-09-04T17:38:29.034Z,63.47
2018-09-04T17:40:57.620Z,64.52
2018-09-04T17:43:26.186Z,65.13
2018-09-04T17:45:54.860Z,65.89
2018-09-04T17:48:23.478Z,66.28
2018-09-04T17:50:52.090Z,66.85
2018-09-04T17:53:20.673Z,67.85
2018-09-04T17:55:49.266Z,68.17
2018-09-04T17:58:17.823Z,68.93
2018-09-04T18:00:46.564Z,69.24
2018-09-04T18:03:15.108Z,70.18
2018-09-04T18:05:43.754Z,70.74
2018-09-04T18:08:12.339Z,71.34
2018-09-04T18:10:40.977Z,71.97
2018-09-04T18:13:09.546Z,72.45
2018-09-04T18:15:38.149Z,73.09
2018-09-04T18:18:06.745Z,73.65
2018-09-04T18:20:35.355Z,73.89
2018-09-04T18:23:03.930Z,74.26
2018-09-04T18:25:32.531Z,74.57
2018-09-04T18:28:01.101Z,74.71
2018-09-04T18:30:29.698Z,75.50
2018-09-04T18:32:58.268Z,75.99
2018-09-04T18:35:26.996Z,76.50
2018-09-04T18:37:55.573Z,77.29
2018-09-04T18:40:24.159Z,78.19
2018-09-04T18:42:52.737Z,79.17
2018-09-04T18:45:32.408Z,79.92
2018-09-04T18:48:00.987Z,80.52
2018-09-04T18:50:29.621Z,80.94
2018-09-04T18:52:58.221Z,81.56
2018-09-04T18:55:26.861Z,81.82
2018-09-04T18:57:55.480Z,82.06
2018-09-04T19:00:24.052Z,82.29
2018-09-04T19:02:52.629Z,82.79
2018-09-04T19:05:21.214Z,83.07
2018-09-04T19:07:49.792Z,83.25
2018-09-04T19:10:18.372Z,83.40
2018-09-04T19:12:46.961Z,84.04
2018-09-04T19:15:15.542Z,84.49
2018-09-04T19:17:44.138Z,84.79
2018-09-04T19:20:12.797Z,84.99
2018-09-04T19:22:41.373Z,85.44
2018-09-04T19:25:09.968Z,85.89
2018-09-04T19:27:38.585Z,86.16
2018-09-04T19:30:07.233Z,86.19
2018-09-04T19:32:35.901Z,86.70
2018-09-04T19:35:04.520Z,86.70
2018-09-04T19:37:33.135Z,86.77
2018-09-04T19:40:01.814Z,87.57
2018-09-04T19:42:30.448Z,87.49
2018-09-04T19:44:59.051Z,87.82
2018-09-04T19:47:27.643Z,88.14
2018-09-04T19:49:56.348Z,88.46
2018-09-04T19:52:24.901Z,88.55
2018-09-04T19:54:53.470Z,88.63
2018-09-04T19:57:22.084Z,89.06
2018-09-04T19:59:50.649Z,89.18
2018-09-04T20:02:19.308Z,89.65
2018-09-04T20:04:47.941Z,90.00
2018-09-04T20:07:16.617Z,89.97
2018-09-04T20:09:45.205Z,90.24
2018-09-04T20:12:13.813Z,90.48
2018-09-04T20:14:42.402Z,90.66
2018-09-04T20:17:10.989Z,90.80
2018-09-04T20:19:39.557Z,90.88
2018-09-04T20:22:09.145Z,91.20
2018-09-04T20:24:37.753Z,91.02
2018-09-04T20:27:06.502Z,91.15
2018-09-04T20:29:35.145Z,90.86
2018-09-04T20:32:03.720Z,91.19
2018-09-04T20:34:32.356Z,91.36
2018-09-04T20:37:00.979Z,92.00
2018-09-04T20:39:29.561Z,91.70
2018-09-04T20:41:58.207Z,92.37
2018-09-04T20:44:26.806Z,92.57
2018-09-04T20:46:55.463Z,92.98
2018-09-04T20:49:24.039Z,92.50
2018-09-04T20:51:52.646Z,92.60
2018-09-04T20:54:21.299Z,92.55
2018-09-04T20:57:36.804Z,92.86
2018-09-04T21:00:19.086Z,92.90
2018-09-04T21:02:59.639Z,93.27
2018-09-04T21:05:39.392Z,93.34
2018-09-04T21:08:58.592Z,93.94
2018-09-04T21:11:27.196Z,94.27
2018-09-04T21:13:55.794Z,94.47
2018-09-04T21:16:24.383Z,94.29
2018-09-04T21:18:53.132Z,94.57
2018-09-04T21:21:22.051Z,94.81
2018-09-04T21:23:50.653Z,94.83
2018-09-04T21:26:19.243Z,94.77
2018-09-04T21:28:47.898Z,94.97
2018-09-04T21:31:16.474Z,95.16
2018-09-04T21:33:45.064Z,95.12
2018-09-04T21:36:13.617Z,95.34
2018-09-04T21:38:42.266Z,95.34
2018-09-04T21:41:10.830Z,95.51
2018-09-04T21:43:39.475Z,95.59
2018-09-04T21:46:08.104Z,96.13
2018-09-04T21:48:36.899Z,96.44
2018-09-04T21:51:06.258Z,96.70
2018-09-04T21:53:34.870Z,96.38
2018-09-04T21:56:03.462Z,96.74
2018-09-04T21:58:32.057Z,97.13
2018-09-04T22:01:00.763Z,97.18
2018-09-04T22:03:29.336Z,97.17
2018-09-04T22:05:57.925Z,96.32
2018-09-04T22:08:26.490Z,95.88
2018-09-04T22:10:55.078Z,96.68
2018-09-04T22:13:23.654Z,97.37
2018-09-04T22:15:52.257Z,97.99
2018-09-04T22:18:20.830Z,98.25
2018-09-04T22:20:49.486Z,98.03
2018-09-04T22:23:18.083Z,97.18
2018-09-04T22:25:46.678Z,96.31
2018-09-04T22:28:15.549Z,96.67
2018-09-04T22:30:44.133Z,96.69
2018-09-04T22:33:12.679Z,96.69
2018-09-04T22:35:41.244Z,96.86
2018-09-04T22:38:09.819Z,97.00
2018-09-04T22:40:38.397Z,97.73
2018-09-04T22:43:06.964Z,97.95
2018-09-04T22:45:35.552Z,98.48
2018-09-04T22:48:04.111Z,98.44
2018-09-04T22:50:37.945Z,98.56
2018-09-04T22:53:06.519Z,98.00
2018-09-04T22:55:35.092Z,97.72
2018-09-04T22:58:03.749Z,96.36
2018-09-04T23:00:32.309Z,95.30
2018-09-04T23:03:00.860Z,95.79
2018-09-04T23:05:29.442Z,96.55
2018-09-04T23:07:58.002Z,97.37
2018-09-04T23:10:26.581Z,98.61
2018-09-04T23:12:55.150Z,98.90
2018-09-04T23:15:23.732Z,99.02
2018-09-04T23:17:52.286Z,98.78
2018-09-04T23:20:20.856Z,98.29
2018-09-04T23:22:49.406Z,97.70
2018-09-04T23:25:18.030Z,97.70
2018-09-04T23:27:46.597Z,97.83
2018-09-04T23:30:15.192Z,97.93
2018-09-04T23:32:44.685Z,97.90
2018-09-04T23:35:13.271Z,97.92
2018-09-04T23:37:41.861Z,98.05
2018-09-04T23:40:10.528Z,97.88
2018-09-04T23:42:39.111Z,97.56
2018-09-04T23:45:07.764Z,97.06
2018-09-04T23:47:36.323Z,97.08
2018-09-04T23:50:06.941Z,96.18
2018-09-04T23:52:35.512Z,96.30
2018-09-04T23:55:04.150Z,96.70
2018-09-04T23:57:32.737Z,97.98
